sensor_id;sensor_type;location;lat;lon;timestamp;temperature;humidity
52879;DHT22;38747;53.140;6.498;2023-05-27T00:01:26;7.60;99.90
52879;DHT22;38747;53.140;6.498;2023-05-27T00:03:52;7.60;99.90
52879;DHT22;38747;53.140;6.498;2023-05-27T00:06:18;7.50;99.90
52879;DHT22;38747;53.140;6.498;2023-05-27T00:08:43;7.50;99.90
52879;DHT22;38747;53.140;6.498;2023-05-27T00:11:09;7.40;99.90
52879;DHT22;38747;53.140;6.498;2023-05-27T00:13:34;7.40;99.90
52879;DHT22;38747;53.140;6.498;2023-05-27T00:16:00;7.40;99.90
52879;DHT22;38747;53.140;6.498;2023-05-27T00:18:26;7.40;99.90
52879;DHT22;38747;53.140;6.498;2023-05-27T00:20:51;7.30;99.90
52879;DHT22;38747;53.140;6.498;2023-05-27T00:23:17;7.30;99.90
52879;DHT22;38747;53.140;6.498;2023-05-27T00:25:43;7.30;99.90
52879;DHT22;38747;53.140;6.498;2023-05-27T00:28:08;7.30;99.90
52879;DHT22;38747;53.140;6.498;2023-05-27T00:30:34;7.20;99.90
52879;DHT22;38747;53.140;6.498;2023-05-27T00:33:00;7.20;99.90
52879;DHT22;38747;53.140;6.498;2023-05-27T00:35:25;7.20;99.90
52879;DHT22;38747;53.140;6.498;2023-05-27T00:37:51;7.20;99.90
52879;DHT22;38747;53.140;6.498;2023-05-27T00:40:20;7.10;99.90
52879;DHT22;38747;53.140;6.498;2023-05-27T00:42:47;7.10;99.90
52879;DHT22;38747;53.140;6.498;2023-05-27T00:45:12;7.10;99.90
52879;DHT22;38747;53.140;6.498;2023-05-27T00:47:38;7.00;99.90
52879;DHT22;38747;53.140;6.498;2023-05-27T00:50:04;7.00;99.90
52879;DHT22;38747;53.140;6.498;2023-05-27T00:52:31;7.00;99.90
52879;DHT22;38747;53.140;6.498;2023-05-27T00:54:57;7.00;99.90
52879;DHT22;38747;53.140;6.498;2023-05-27T00:57:24;7.10;99.90
52879;DHT22;38747;53.140;6.498;2023-05-27T00:59:51;7.10;99.90
52879;DHT22;38747;53.140;6.498;2023-05-27T01:02:17;7.00;99.90
52879;DHT22;38747;53.140;6.498;2023-05-27T01:04:43;7.00;99.90
52879;DHT22;38747;53.140;6.498;2023-05-27T01:07:16;7.00;99.90
52879;DHT22;38747;53.140;6.498;2023-05-27T01:09:49;6.90;99.90
52879;DHT22;38747;53.140;6.498;2023-05-27T01:15:08;6.90;99.90
52879;DHT22;38747;53.140;6.498;2023-05-27T01:17:35;6.80;99.90
52879;DHT22;38747;53.140;6.498;2023-05-27T01:20:03;6.70;99.90
52879;DHT22;38747;53.140;6.498;2023-05-27T01:22:35;6.70;99.90
52879;DHT22;38747;53.140;6.498;2023-05-27T01:25:02;6.70;99.90
52879;DHT22;38747;53.140;6.498;2023-05-27T01:27:28;6.70;99.90
52879;DHT22;38747;53.140;6.498;2023-05-27T01:29:54;6.70;99.90
52879;DHT22;38747;53.140;6.498;2023-05-27T01:34:55;6.70;99.90
52879;DHT22;38747;53.140;6.498;2023-05-27T01:37:24;6.70;99.90
52879;DHT22;38747;53.140;6.498;2023-05-27T01:39:51;6.70;99.90
52879;DHT22;38747;53.140;6.498;2023-05-27T01:42:18;6.60;99.90
52879;DHT22;38747;53.140;6.498;2023-05-27T01:44:45;6.60;99.90
52879;DHT22;38747;53.140;6.498;2023-05-27T01:47:11;6.60;99.90
52879;DHT22;38747;53.140;6.498;2023-05-27T01:49:36;6.70;99.90
52879;DHT22;38747;53.140;6.498;2023-05-27T01:52:02;6.70;99.90
52879;DHT22;38747;53.140;6.498;2023-05-27T01:54:28;6.70;99.90
52879;DHT22;38747;53.140;6.498;2023-05-27T01:56:53;6.70;99.90
52879;DHT22;38747;53.140;6.498;2023-05-27T01:59:19;6.70;99.90
52879;DHT22;38747;53.140;6.498;2023-05-27T02:01:45;6.70;99.90
52879;DHT22;38747;53.140;6.498;2023-05-27T02:04:11;6.70;99.90
52879;DHT22;38747;53.140;6.498;2023-05-27T02:06:36;6.80;99.90
52879;DHT22;38747;53.140;6.498;2023-05-27T02:09:02;6.70;99.90
52879;DHT22;38747;53.140;6.498;2023-05-27T02:11:28;6.70;99.90
52879;DHT22;38747;53.140;6.498;2023-05-27T02:13:54;6.70;99.90
52879;DHT22;38747;53.140;6.498;2023-05-27T02:16:21;6.70;99.90
52879;DHT22;38747;53.140;6.498;2023-05-27T02:18:49;6.70;99.90
52879;DHT22;38747;53.140;6.498;2023-05-27T02:21:15;6.70;99.90
52879;DHT22;38747;53.140;6.498;2023-05-27T02:23:41;6.60;99.90
52879;DHT22;38747;53.140;6.498;2023-05-27T02:26:07;6.70;99.90
52879;DHT22;38747;53.140;6.498;2023-05-27T02:28:32;6.70;99.90
52879;DHT22;38747;53.140;6.498;2023-05-27T02:30:59;6.70;99.90
52879;DHT22;38747;53.140;6.498;2023-05-27T02:33:25;6.70;99.90
52879;DHT22;38747;53.140;6.498;2023-05-27T02:35:50;6.80;99.90
52879;DHT22;38747;53.140;6.498;2023-05-27T02:38:16;6.70;99.90
52879;DHT22;38747;53.140;6.498;2023-05-27T02:40:42;6.70;99.90
52879;DHT22;38747;53.140;6.498;2023-05-27T02:43:07;6.70;99.90
52879;DHT22;38747;53.140;6.498;2023-05-27T02:45:33;6.80;99.90
52879;DHT22;38747;53.140;6.498;2023-05-27T02:47:59;6.80;99.90
52879;DHT22;38747;53.140;6.498;2023-05-27T02:50:26;6.90;99.90
52879;DHT22;38747;53.140;6.498;2023-05-27T02:52:52;7.00;99.90
52879;DHT22;38747;53.140;6.498;2023-05-27T02:55:18;7.00;99.90
52879;DHT22;38747;53.140;6.498;2023-05-27T02:57:43;7.10;99.90
52879;DHT22;38747;53.140;6.498;2023-05-27T03:00:09;7.10;99.90
52879;DHT22;38747;53.140;6.498;2023-05-27T03:02:37;7.10;99.90
52879;DHT22;38747;53.140;6.498;2023-05-27T03:05:03;7.10;99.90
52879;DHT22;38747;53.140;6.498;2023-05-27T03:07:29;7.10;99.90
52879;DHT22;38747;53.140;6.498;2023-05-27T03:09:55;7.10;99.90
52879;DHT22;38747;53.140;6.498;2023-05-27T03:12:21;7.10;99.90
52879;DHT22;38747;53.140;6.498;2023-05-27T03:14:47;7.20;99.90
52879;DHT22;38747;53.140;6.498;2023-05-27T03:17:13;7.20;99.90
52879;DHT22;38747;53.140;6.498;2023-05-27T03:19:38;7.20;99.90
52879;DHT22;38747;53.140;6.498;2023-05-27T03:22:04;7.30;99.90
52879;DHT22;38747;53.140;6.498;2023-05-27T03:24:30;7.40;99.90
52879;DHT22;38747;53.140;6.498;2023-05-27T03:26:55;7.50;99.90
52879;DHT22;38747;53.140;6.498;2023-05-27T03:29:21;7.50;99.90
52879;DHT22;38747;53.140;6.498;2023-05-27T03:31:46;7.60;99.90
52879;DHT22;38747;53.140;6.498;2023-05-27T03:34:13;7.60;99.90
52879;DHT22;38747;53.140;6.498;2023-05-27T03:36:38;7.70;99.90
52879;DHT22;38747;53.140;6.498;2023-05-27T03:39:04;7.80;99.90
52879;DHT22;38747;53.140;6.498;2023-05-27T03:41:33;7.80;99.90
52879;DHT22;38747;53.140;6.498;2023-05-27T03:43:58;7.90;99.90
52879;DHT22;38747;53.140;6.498;2023-05-27T03:46:24;7.90;99.90
52879;DHT22;38747;53.140;6.498;2023-05-27T03:48:49;7.90;99.90
52879;DHT22;38747;53.140;6.498;2023-05-27T03:51:15;8.00;99.90
52879;DHT22;38747;53.140;6.498;2023-05-27T03:53:41;8.00;99.90
52879;DHT22;38747;53.140;6.498;2023-05-27T03:56:06;8.10;99.90
52879;DHT22;38747;53.140;6.498;2023-05-27T03:58:32;8.10;99.90
52879;DHT22;38747;53.140;6.498;2023-05-27T04:00:57;8.20;99.90
52879;DHT22;38747;53.140;6.498;2023-05-27T04:03:23;8.20;99.90
52879;DHT22;38747;53.140;6.498;2023-05-27T04:05:48;8.30;99.90
52879;DHT22;38747;53.140;6.498;2023-05-27T04:08:14;8.30;99.90
52879;DHT22;38747;53.140;6.498;2023-05-27T04:10:40;8.30;99.90
52879;DHT22;38747;53.140;6.498;2023-05-27T04:13:05;8.40;99.90
52879;DHT22;38747;53.140;6.498;2023-05-27T04:15:32;8.50;99.90
52879;DHT22;38747;53.140;6.498;2023-05-27T04:17:57;8.50;99.90
52879;DHT22;38747;53.140;6.498;2023-05-27T04:20:24;8.60;99.90
52879;DHT22;38747;53.140;6.498;2023-05-27T04:22:50;8.60;99.90
52879;DHT22;38747;53.140;6.498;2023-05-27T04:25:15;8.70;99.90
52879;DHT22;38747;53.140;6.498;2023-05-27T04:27:41;8.80;99.90
52879;DHT22;38747;53.140;6.498;2023-05-27T04:30:07;8.80;99.90
52879;DHT22;38747;53.140;6.498;2023-05-27T04:32:33;8.90;99.90
52879;DHT22;38747;53.140;6.498;2023-05-27T04:35:04;8.90;99.90
52879;DHT22;38747;53.140;6.498;2023-05-27T04:37:30;9.00;99.90
52879;DHT22;38747;53.140;6.498;2023-05-27T04:39:56;9.00;99.90
52879;DHT22;38747;53.140;6.498;2023-05-27T04:42:25;9.10;99.90
52879;DHT22;38747;53.140;6.498;2023-05-27T04:44:51;9.10;99.90
52879;DHT22;38747;53.140;6.498;2023-05-27T04:47:17;9.10;99.90
52879;DHT22;38747;53.140;6.498;2023-05-27T04:49:42;9.00;99.90
52879;DHT22;38747;53.140;6.498;2023-05-27T04:52:11;9.10;99.90
52879;DHT22;38747;53.140;6.498;2023-05-27T04:54:37;9.00;99.90
52879;DHT22;38747;53.140;6.498;2023-05-27T04:57:02;9.10;99.90
52879;DHT22;38747;53.140;6.498;2023-05-27T04:59:28;9.00;99.90
52879;DHT22;38747;53.140;6.498;2023-05-27T05:02:14;9.00;99.90
52879;DHT22;38747;53.140;6.498;2023-05-27T05:04:47;9.00;99.90
52879;DHT22;38747;53.140;6.498;2023-05-27T05:07:13;8.90;99.90
52879;DHT22;38747;53.140;6.498;2023-05-27T05:09:39;9.00;99.90
52879;DHT22;38747;53.140;6.498;2023-05-27T05:12:07;9.00;99.90
52879;DHT22;38747;53.140;6.498;2023-05-27T05:14:32;9.00;99.90
52879;DHT22;38747;53.140;6.498;2023-05-27T05:16:58;9.00;99.90
52879;DHT22;38747;53.140;6.498;2023-05-27T05:19:24;9.00;99.90
52879;DHT22;38747;53.140;6.498;2023-05-27T05:21:49;9.00;99.90
52879;DHT22;38747;53.140;6.498;2023-05-27T05:24:15;9.00;99.90
52879;DHT22;38747;53.140;6.498;2023-05-27T05:26:41;9.00;99.90
52879;DHT22;38747;53.140;6.498;2023-05-27T05:29:06;9.00;99.90
52879;DHT22;38747;53.140;6.498;2023-05-27T05:31:32;9.00;99.90
52879;DHT22;38747;53.140;6.498;2023-05-27T05:33:58;9.00;99.90
52879;DHT22;38747;53.140;6.498;2023-05-27T05:36:23;9.00;99.90
52879;DHT22;38747;53.140;6.498;2023-05-27T05:38:49;9.00;99.90
52879;DHT22;38747;53.140;6.498;2023-05-27T05:41:15;9.00;99.90
52879;DHT22;38747;53.140;6.498;2023-05-27T05:43:40;9.10;99.90
52879;DHT22;38747;53.140;6.498;2023-05-27T05:46:06;9.10;99.90
52879;DHT22;38747;53.140;6.498;2023-05-27T05:48:32;9.10;99.90
52879;DHT22;38747;53.140;6.498;2023-05-27T05:50:58;9.20;99.90
52879;DHT22;38747;53.140;6.498;2023-05-27T05:53:26;9.20;99.90
52879;DHT22;38747;53.140;6.498;2023-05-27T05:55:51;9.30;99.90
52879;DHT22;38747;53.140;6.498;2023-05-27T05:58:17;9.30;99.90
52879;DHT22;38747;53.140;6.498;2023-05-27T06:00:43;9.40;99.90
52879;DHT22;38747;53.140;6.498;2023-05-27T06:03:08;9.40;99.90
52879;DHT22;38747;53.140;6.498;2023-05-27T06:05:34;9.50;99.90
52879;DHT22;38747;53.140;6.498;2023-05-27T06:08:00;9.60;99.90
52879;DHT22;38747;53.140;6.498;2023-05-27T06:10:25;9.70;99.90
52879;DHT22;38747;53.140;6.498;2023-05-27T06:12:51;9.80;99.90
52879;DHT22;38747;53.140;6.498;2023-05-27T06:15:17;9.90;99.90
52879;DHT22;38747;53.140;6.498;2023-05-27T06:17:44;10.10;99.90
52879;DHT22;38747;53.140;6.498;2023-05-27T06:20:10;10.20;99.90
52879;DHT22;38747;53.140;6.498;2023-05-27T06:22:35;10.20;99.90
52879;DHT22;38747;53.140;6.498;2023-05-27T06:25:01;10.30;99.90
52879;DHT22;38747;53.140;6.498;2023-05-27T06:27:27;10.40;99.90
52879;DHT22;38747;53.140;6.498;2023-05-27T06:29:52;10.50;99.90
52879;DHT22;38747;53.140;6.498;2023-05-27T06:32:18;10.60;99.90
52879;DHT22;38747;53.140;6.498;2023-05-27T06:34:43;10.70;99.90
52879;DHT22;38747;53.140;6.498;2023-05-27T06:37:09;10.80;99.90
52879;DHT22;38747;53.140;6.498;2023-05-27T06:39:35;10.90;99.90
52879;DHT22;38747;53.140;6.498;2023-05-27T06:42:00;10.90;99.90
52879;DHT22;38747;53.140;6.498;2023-05-27T06:44:26;11.00;99.90
52879;DHT22;38747;53.140;6.498;2023-05-27T06:46:52;11.00;99.90
52879;DHT22;38747;53.140;6.498;2023-05-27T06:49:17;11.10;99.90
52879;DHT22;38747;53.140;6.498;2023-05-27T06:51:43;11.10;99.90
52879;DHT22;38747;53.140;6.498;2023-05-27T06:54:09;11.20;99.90
52879;DHT22;38747;53.140;6.498;2023-05-27T06:56:34;11.20;99.90
52879;DHT22;38747;53.140;6.498;2023-05-27T06:59:00;11.30;99.90
52879;DHT22;38747;53.140;6.498;2023-05-27T07:01:26;11.30;99.90
52879;DHT22;38747;53.140;6.498;2023-05-27T07:03:52;11.40;99.90
52879;DHT22;38747;53.140;6.498;2023-05-27T07:06:17;11.50;99.90
52879;DHT22;38747;53.140;6.498;2023-05-27T07:08:43;11.70;99.90
52879;DHT22;38747;53.140;6.498;2023-05-27T07:11:09;11.80;99.90
52879;DHT22;38747;53.140;6.498;2023-05-27T07:13:34;12.00;99.90
52879;DHT22;38747;53.140;6.498;2023-05-27T07:16:00;12.10;99.90
52879;DHT22;38747;53.140;6.498;2023-05-27T07:18:25;12.10;99.90
52879;DHT22;38747;53.140;6.498;2023-05-27T07:20:51;12.10;99.90
52879;DHT22;38747;53.140;6.498;2023-05-27T07:23:17;12.20;99.90
52879;DHT22;38747;53.140;6.498;2023-05-27T07:25:42;12.20;99.90
52879;DHT22;38747;53.140;6.498;2023-05-27T07:28:08;12.20;99.90
52879;DHT22;38747;53.140;6.498;2023-05-27T07:30:34;12.30;99.90
52879;DHT22;38747;53.140;6.498;2023-05-27T07:32:59;12.30;99.90
52879;DHT22;38747;53.140;6.498;2023-05-27T07:35:25;12.40;99.90
52879;DHT22;38747;53.140;6.498;2023-05-27T07:37:51;12.50;99.90
52879;DHT22;38747;53.140;6.498;2023-05-27T07:40:16;12.60;99.90
52879;DHT22;38747;53.140;6.498;2023-05-27T07:42:42;12.60;99.90
52879;DHT22;38747;53.140;6.498;2023-05-27T07:45:08;12.60;99.90
52879;DHT22;38747;53.140;6.498;2023-05-27T07:47:34;12.70;99.90
52879;DHT22;38747;53.140;6.498;2023-05-27T07:49:59;12.80;99.90
52879;DHT22;38747;53.140;6.498;2023-05-27T07:52:25;12.90;99.90
52879;DHT22;38747;53.140;6.498;2023-05-27T07:54:51;13.00;99.90
52879;DHT22;38747;53.140;6.498;2023-05-27T07:57:17;13.10;99.90
52879;DHT22;38747;53.140;6.498;2023-05-27T07:59:43;13.20;99.90
52879;DHT22;38747;53.140;6.498;2023-05-27T08:02:09;13.40;99.90
52879;DHT22;38747;53.140;6.498;2023-05-27T08:04:34;13.40;99.90
52879;DHT22;38747;53.140;6.498;2023-05-27T08:07:00;13.50;99.90
52879;DHT22;38747;53.140;6.498;2023-05-27T08:09:26;13.50;99.90
52879;DHT22;38747;53.140;6.498;2023-05-27T08:11:51;13.50;99.90
52879;DHT22;38747;53.140;6.498;2023-05-27T08:14:17;13.40;99.90
52879;DHT22;38747;53.140;6.498;2023-05-27T08:16:43;13.50;99.90
52879;DHT22;38747;53.140;6.498;2023-05-27T08:19:08;13.50;99.90
52879;DHT22;38747;53.140;6.498;2023-05-27T08:21:34;13.50;99.90
52879;DHT22;38747;53.140;6.498;2023-05-27T08:24:01;13.60;99.90
52879;DHT22;38747;53.140;6.498;2023-05-27T08:26:28;13.50;99.90
52879;DHT22;38747;53.140;6.498;2023-05-27T08:28:54;13.50;99.90
52879;DHT22;38747;53.140;6.498;2023-05-27T08:31:19;13.60;99.90
52879;DHT22;38747;53.140;6.498;2023-05-27T08:33:45;13.60;99.90
52879;DHT22;38747;53.140;6.498;2023-05-27T08:36:10;13.70;99.90
52879;DHT22;38747;53.140;6.498;2023-05-27T08:38:37;13.80;99.90
52879;DHT22;38747;53.140;6.498;2023-05-27T08:41:02;13.90;99.90
52879;DHT22;38747;53.140;6.498;2023-05-27T08:43:29;14.00;99.90
52879;DHT22;38747;53.140;6.498;2023-05-27T08:45:55;14.00;99.90
52879;DHT22;38747;53.140;6.498;2023-05-27T08:48:21;14.00;99.90
52879;DHT22;38747;53.140;6.498;2023-05-27T08:50:47;14.10;99.90
52879;DHT22;38747;53.140;6.498;2023-05-27T08:53:13;14.20;99.90
52879;DHT22;38747;53.140;6.498;2023-05-27T08:55:41;14.30;99.90
52879;DHT22;38747;53.140;6.498;2023-05-27T08:58:08;14.40;99.90
52879;DHT22;38747;53.140;6.498;2023-05-27T09:00:35;14.60;99.90
52879;DHT22;38747;53.140;6.498;2023-05-27T09:03:00;14.70;99.90
52879;DHT22;38747;53.140;6.498;2023-05-27T09:05:28;14.70;99.90
52879;DHT22;38747;53.140;6.498;2023-05-27T09:07:54;14.60;99.90
52879;DHT22;38747;53.140;6.498;2023-05-27T09:10:20;14.70;99.90
52879;DHT22;38747;53.140;6.498;2023-05-27T09:12:46;14.80;99.90
52879;DHT22;38747;53.140;6.498;2023-05-27T09:15:13;14.80;99.90
52879;DHT22;38747;53.140;6.498;2023-05-27T09:17:46;14.90;99.90
52879;DHT22;38747;53.140;6.498;2023-05-27T09:20:11;15.00;99.90
52879;DHT22;38747;53.140;6.498;2023-05-27T09:22:39;15.10;99.90
52879;DHT22;38747;53.140;6.498;2023-05-27T09:25:05;15.30;99.90
52879;DHT22;38747;53.140;6.498;2023-05-27T09:27:34;15.40;99.90
52879;DHT22;38747;53.140;6.498;2023-05-27T09:30:08;15.60;99.90
52879;DHT22;38747;53.140;6.498;2023-05-27T09:32:34;15.80;99.90
52879;DHT22;38747;53.140;6.498;2023-05-27T09:35:01;15.80;99.90
52879;DHT22;38747;53.140;6.498;2023-05-27T09:37:27;16.00;99.90
52879;DHT22;38747;53.140;6.498;2023-05-27T09:40:07;16.10;99.90
52879;DHT22;38747;53.140;6.498;2023-05-27T09:45:08;16.30;99.90
52879;DHT22;38747;53.140;6.498;2023-05-27T09:47:40;16.50;99.90
52879;DHT22;38747;53.140;6.498;2023-05-27T09:50:08;16.60;99.90
52879;DHT22;38747;53.140;6.498;2023-05-27T09:52:36;16.80;99.90
52879;DHT22;38747;53.140;6.498;2023-05-27T09:55:04;17.00;99.90
52879;DHT22;38747;53.140;6.498;2023-05-27T09:57:30;17.10;99.90
52879;DHT22;38747;53.140;6.498;2023-05-27T09:59:59;17.20;99.90
52879;DHT22;38747;53.140;6.498;2023-05-27T10:02:25;17.40;99.90
52879;DHT22;38747;53.140;6.498;2023-05-27T10:04:53;17.40;99.90
52879;DHT22;38747;53.140;6.498;2023-05-27T10:07:19;17.40;99.90
52879;DHT22;38747;53.140;6.498;2023-05-27T10:09:47;17.50;99.90
52879;DHT22;38747;53.140;6.498;2023-05-27T10:12:14;17.70;99.90
52879;DHT22;38747;53.140;6.498;2023-05-27T10:14:42;17.80;99.90
52879;DHT22;38747;53.140;6.498;2023-05-27T10:17:10;17.90;99.90
52879;DHT22;38747;53.140;6.498;2023-05-27T10:19:36;17.70;99.90
52879;DHT22;38747;53.140;6.498;2023-05-27T10:22:12;17.80;99.90
52879;DHT22;38747;53.140;6.498;2023-05-27T10:24:39;17.90;99.90
52879;DHT22;38747;53.140;6.498;2023-05-27T10:27:05;18.00;99.90
52879;DHT22;38747;53.140;6.498;2023-05-27T10:29:38;18.20;99.90
52879;DHT22;38747;53.140;6.498;2023-05-27T10:32:04;18.30;99.90
52879;DHT22;38747;53.140;6.498;2023-05-27T10:34:35;18.30;99.90
52879;DHT22;38747;53.140;6.498;2023-05-27T10:37:01;18.40;99.90
52879;DHT22;38747;53.140;6.498;2023-05-27T10:39:27;18.50;99.90
52879;DHT22;38747;53.140;6.498;2023-05-27T10:41:54;18.30;99.90
52879;DHT22;38747;53.140;6.498;2023-05-27T10:44:26;18.40;99.90
52879;DHT22;38747;53.140;6.498;2023-05-27T10:46:59;18.50;99.90
52879;DHT22;38747;53.140;6.498;2023-05-27T10:49:26;18.50;99.90
52879;DHT22;38747;53.140;6.498;2023-05-27T10:52:05;18.60;99.90
52879;DHT22;38747;53.140;6.498;2023-05-27T10:54:36;18.50;99.90
52879;DHT22;38747;53.140;6.498;2023-05-27T10:57:03;18.50;99.90
52879;DHT22;38747;53.140;6.498;2023-05-27T10:59:45;18.60;99.90
52879;DHT22;38747;53.140;6.498;2023-05-27T11:02:13;18.60;99.90
52879;DHT22;38747;53.140;6.498;2023-05-27T11:04:38;18.60;99.90
52879;DHT22;38747;53.140;6.498;2023-05-27T11:07:04;18.80;99.90
52879;DHT22;38747;53.140;6.498;2023-05-27T11:09:31;18.90;99.90
52879;DHT22;38747;53.140;6.498;2023-05-27T11:12:01;19.10;99.90
52879;DHT22;38747;53.140;6.498;2023-05-27T11:14:30;19.20;99.90
52879;DHT22;38747;53.140;6.498;2023-05-27T11:16:56;19.40;99.90
52879;DHT22;38747;53.140;6.498;2023-05-27T11:19:21;19.50;99.90
52879;DHT22;38747;53.140;6.498;2023-05-27T11:21:47;19.30;99.90
52879;DHT22;38747;53.140;6.498;2023-05-27T11:24:20;19.30;99.90
52879;DHT22;38747;53.140;6.498;2023-05-27T11:26:47;19.30;99.90
52879;DHT22;38747;53.140;6.498;2023-05-27T11:29:14;19.40;99.90
52879;DHT22;38747;53.140;6.498;2023-05-27T11:31:40;19.50;99.90
52879;DHT22;38747;53.140;6.498;2023-05-27T11:34:16;19.70;99.90
52879;DHT22;38747;53.140;6.498;2023-05-27T11:36:44;19.70;99.90
52879;DHT22;38747;53.140;6.498;2023-05-27T11:39:14;19.70;99.90
52879;DHT22;38747;53.140;6.498;2023-05-27T11:41:52;19.80;99.90
52879;DHT22;38747;53.140;6.498;2023-05-27T11:44:22;19.90;99.90
52879;DHT22;38747;53.140;6.498;2023-05-27T11:46:48;20.00;99.90
52879;DHT22;38747;53.140;6.498;2023-05-27T11:49:16;20.00;99.90
52879;DHT22;38747;53.140;6.498;2023-05-27T11:51:47;20.20;99.90
52879;DHT22;38747;53.140;6.498;2023-05-27T11:54:20;20.20;99.90
52879;DHT22;38747;53.140;6.498;2023-05-27T11:56:47;20.30;99.90
52879;DHT22;38747;53.140;6.498;2023-05-27T11:59:12;20.40;99.90
52879;DHT22;38747;53.140;6.498;2023-05-27T12:01:40;20.50;99.90
52879;DHT22;38747;53.140;6.498;2023-05-27T12:04:05;20.50;99.90
52879;DHT22;38747;53.140;6.498;2023-05-27T12:06:31;20.70;99.90
52879;DHT22;38747;53.140;6.498;2023-05-27T12:08:57;20.70;99.90
52879;DHT22;38747;53.140;6.498;2023-05-27T12:11:23;20.80;99.90
52879;DHT22;38747;53.140;6.498;2023-05-27T12:13:48;20.80;99.90
52879;DHT22;38747;53.140;6.498;2023-05-27T12:16:14;20.80;99.90
52879;DHT22;38747;53.140;6.498;2023-05-27T12:18:40;21.00;99.90
52879;DHT22;38747;53.140;6.498;2023-05-27T12:21:07;20.90;99.90
52879;DHT22;38747;53.140;6.498;2023-05-27T12:23:33;20.90;99.90
52879;DHT22;38747;53.140;6.498;2023-05-27T12:25:59;20.80;99.90
52879;DHT22;38747;53.140;6.498;2023-05-27T12:28:25;20.80;99.90
52879;DHT22;38747;53.140;6.498;2023-05-27T12:30:51;20.70;99.90
52879;DHT22;38747;53.140;6.498;2023-05-27T12:33:17;20.60;99.90
52879;DHT22;38747;53.140;6.498;2023-05-27T12:35:43;20.50;99.90
52879;DHT22;38747;53.140;6.498;2023-05-27T12:38:08;20.50;99.90
52879;DHT22;38747;53.140;6.498;2023-05-27T12:40:34;20.50;99.90
52879;DHT22;38747;53.140;6.498;2023-05-27T12:43:00;20.70;99.90
52879;DHT22;38747;53.140;6.498;2023-05-27T12:45:25;20.90;99.90
52879;DHT22;38747;53.140;6.498;2023-05-27T12:47:52;21.00;99.90
52879;DHT22;38747;53.140;6.498;2023-05-27T12:50:18;21.10;99.90
52879;DHT22;38747;53.140;6.498;2023-05-27T12:52:45;21.20;99.90
52879;DHT22;38747;53.140;6.498;2023-05-27T12:55:17;21.30;99.90
52879;DHT22;38747;53.140;6.498;2023-05-27T12:57:48;21.30;99.90
52879;DHT22;38747;53.140;6.498;2023-05-27T13:00:14;21.10;99.90
52879;DHT22;38747;53.140;6.498;2023-05-27T13:02:41;21.20;99.90
52879;DHT22;38747;53.140;6.498;2023-05-27T13:05:08;21.20;99.90
52879;DHT22;38747;53.140;6.498;2023-05-27T13:07:35;21.30;99.90
52879;DHT22;38747;53.140;6.498;2023-05-27T13:10:02;21.40;99.90
52879;DHT22;38747;53.140;6.498;2023-05-27T13:12:30;21.30;99.90
52879;DHT22;38747;53.140;6.498;2023-05-27T13:14:57;21.30;99.90
52879;DHT22;38747;53.140;6.498;2023-05-27T13:17:23;21.30;99.90
52879;DHT22;38747;53.140;6.498;2023-05-27T13:19:49;21.30;99.90
52879;DHT22;38747;53.140;6.498;2023-05-27T13:22:14;21.30;99.90
52879;DHT22;38747;53.140;6.498;2023-05-27T13:24:41;21.30;99.90
52879;DHT22;38747;53.140;6.498;2023-05-27T13:27:07;21.30;99.90
52879;DHT22;38747;53.140;6.498;2023-05-27T13:29:34;21.40;99.90
52879;DHT22;38747;53.140;6.498;2023-05-27T13:31:59;21.50;99.90
52879;DHT22;38747;53.140;6.498;2023-05-27T13:34:25;21.50;99.90
52879;DHT22;38747;53.140;6.498;2023-05-27T13:36:52;21.50;99.90
52879;DHT22;38747;53.140;6.498;2023-05-27T13:39:18;21.50;99.90
52879;DHT22;38747;53.140;6.498;2023-05-27T13:41:43;21.50;99.90
52879;DHT22;38747;53.140;6.498;2023-05-27T13:44:09;21.60;99.90
52879;DHT22;38747;53.140;6.498;2023-05-27T13:46:35;21.70;99.90
52879;DHT22;38747;53.140;6.498;2023-05-27T13:49:00;21.70;99.90
52879;DHT22;38747;53.140;6.498;2023-05-27T13:51:26;21.80;99.90
52879;DHT22;38747;53.140;6.498;2023-05-27T13:53:51;21.80;99.90
52879;DHT22;38747;53.140;6.498;2023-05-27T13:56:17;21.80;99.90
52879;DHT22;38747;53.140;6.498;2023-05-27T13:58:43;21.80;99.90
52879;DHT22;38747;53.140;6.498;2023-05-27T14:01:08;21.70;99.90
52879;DHT22;38747;53.140;6.498;2023-05-27T14:03:34;21.70;99.90
52879;DHT22;38747;53.140;6.498;2023-05-27T14:05:59;21.80;99.90
52879;DHT22;38747;53.140;6.498;2023-05-27T14:08:25;21.80;99.90
52879;DHT22;38747;53.140;6.498;2023-05-27T14:10:50;21.80;99.90
52879;DHT22;38747;53.140;6.498;2023-05-27T14:13:16;21.90;99.90
52879;DHT22;38747;53.140;6.498;2023-05-27T14:15:42;21.80;99.90
52879;DHT22;38747;53.140;6.498;2023-05-27T14:18:07;21.70;99.90
52879;DHT22;38747;53.140;6.498;2023-05-27T14:20:33;21.60;99.90
52879;DHT22;38747;53.140;6.498;2023-05-27T14:22:59;21.60;99.90
52879;DHT22;38747;53.140;6.498;2023-05-27T14:25:27;21.60;99.90
52879;DHT22;38747;53.140;6.498;2023-05-27T14:27:53;21.70;99.90
52879;DHT22;38747;53.140;6.498;2023-05-27T14:30:22;21.60;99.90
52879;DHT22;38747;53.140;6.498;2023-05-27T14:32:50;21.60;99.90
52879;DHT22;38747;53.140;6.498;2023-05-27T14:35:15;21.60;99.90
52879;DHT22;38747;53.140;6.498;2023-05-27T14:37:41;21.50;99.90
52879;DHT22;38747;53.140;6.498;2023-05-27T14:40:07;21.30;99.90
52879;DHT22;38747;53.140;6.498;2023-05-27T14:42:32;21.10;99.90
52879;DHT22;38747;53.140;6.498;2023-05-27T14:44:58;21.10;99.90
52879;DHT22;38747;53.140;6.498;2023-05-27T14:47:23;21.10;99.90
52879;DHT22;38747;53.140;6.498;2023-05-27T14:49:49;21.10;99.90
52879;DHT22;38747;53.140;6.498;2023-05-27T14:52:15;21.20;99.90
52879;DHT22;38747;53.140;6.498;2023-05-27T14:54:40;21.10;99.90
52879;DHT22;38747;53.140;6.498;2023-05-27T14:57:06;21.00;99.90
52879;DHT22;38747;53.140;6.498;2023-05-27T14:59:31;20.90;99.90
52879;DHT22;38747;53.140;6.498;2023-05-27T15:01:57;20.80;99.90
52879;DHT22;38747;53.140;6.498;2023-05-27T15:04:22;20.50;99.90
52879;DHT22;38747;53.140;6.498;2023-05-27T15:06:48;20.40;99.90
52879;DHT22;38747;53.140;6.498;2023-05-27T15:09:14;20.30;99.90
52879;DHT22;38747;53.140;6.498;2023-05-27T15:11:39;20.30;99.90
52879;DHT22;38747;53.140;6.498;2023-05-27T15:14:05;20.30;99.90
52879;DHT22;38747;53.140;6.498;2023-05-27T15:16:30;20.20;99.90
52879;DHT22;38747;53.140;6.498;2023-05-27T15:18:57;20.10;99.90
52879;DHT22;38747;53.140;6.498;2023-05-27T15:21:25;20.10;99.90
52879;DHT22;38747;53.140;6.498;2023-05-27T15:23:50;20.10;99.90
52879;DHT22;38747;53.140;6.498;2023-05-27T15:26:16;20.10;99.90
52879;DHT22;38747;53.140;6.498;2023-05-27T15:28:43;20.10;99.90
52879;DHT22;38747;53.140;6.498;2023-05-27T15:31:09;20.00;99.90
52879;DHT22;38747;53.140;6.498;2023-05-27T15:33:34;19.90;99.90
52879;DHT22;38747;53.140;6.498;2023-05-27T15:36:00;19.90;99.90
52879;DHT22;38747;53.140;6.498;2023-05-27T15:38:26;19.90;99.90
52879;DHT22;38747;53.140;6.498;2023-05-27T15:40:52;19.90;99.90